sensor_id;sensor_type;location;lat;lon;timestamp;P1;durP1;ratioP1;P2;durP2;ratioP2
16579;SDS011;8402;51.466;6.806;2023-10-31T00:00:59;3.60;;;2.80;;
16579;SDS011;8402;51.466;6.806;2023-10-31T00:03:31;2.93;;;2.40;;
16579;SDS011;8402;51.466;6.806;2023-10-31T00:06:04;3.00;;;1.37;;
16579;SDS011;8402;51.466;6.806;2023-10-31T00:08:34;2.23;;;1.30;;
16579;SDS011;8402;51.466;6.806;2023-10-31T00:11:04;2.50;;;1.50;;
16579;SDS011;8402;51.466;6.806;2023-10-31T00:13:34;1.30;;;1.20;;
16579;SDS011;8402;51.466;6.806;2023-10-31T00:16:04;1.50;;;1.17;;
16579;SDS011;8402;51.466;6.806;2023-10-31T00:18:35;3.27;;;1.60;;
16579;SDS011;8402;51.466;6.806;2023-10-31T00:21:07;1.50;;;1.40;;
16579;SDS011;8402;51.466;6.806;2023-10-31T00:23:42;1.80;;;1.50;;
16579;SDS011;8402;51.466;6.806;2023-10-31T00:26:12;2.10;;;1.43;;
16579;SDS011;8402;51.466;6.806;2023-10-31T00:28:43;1.73;;;1.10;;
16579;SDS011;8402;51.466;6.806;2023-10-31T00:31:13;4.60;;;0.90;;
16579;SDS011;8402;51.466;6.806;2023-10-31T00:33:43;2.00;;;1.43;;
16579;SDS011;8402;51.466;6.806;2023-10-31T00:36:15;1.93;;;1.63;;
16579;SDS011;8402;51.466;6.806;2023-10-31T00:38:45;3.07;;;1.60;;
16579;SDS011;8402;51.466;6.806;2023-10-31T00:41:15;3.73;;;2.50;;
16579;SDS011;8402;51.466;6.806;2023-10-31T00:43:45;4.50;;;2.23;;
16579;SDS011;8402;51.466;6.806;2023-10-31T00:46:15;2.67;;;2.10;;
16579;SDS011;8402;51.466;6.806;2023-10-31T00:48:46;2.67;;;2.07;;
16579;SDS011;8402;51.466;6.806;2023-10-31T00:51:18;2.87;;;2.07;;
16579;SDS011;8402;51.466;6.806;2023-10-31T00:53:48;2.27;;;1.10;;
16579;SDS011;8402;51.466;6.806;2023-10-31T00:56:18;2.70;;;1.40;;
16579;SDS011;8402;51.466;6.806;2023-10-31T00:58:48;2.10;;;1.17;;
16579;SDS011;8402;51.466;6.806;2023-10-31T01:01:18;2.03;;;1.40;;
16579;SDS011;8402;51.466;6.806;2023-10-31T01:03:51;1.97;;;1.53;;
16579;SDS011;8402;51.466;6.806;2023-10-31T01:06:23;1.80;;;1.60;;
16579;SDS011;8402;51.466;6.806;2023-10-31T01:08:53;2.30;;;1.57;;
16579;SDS011;8402;51.466;6.806;2023-10-31T01:11:23;4.50;;;1.73;;
16579;SDS011;8402;51.466;6.806;2023-10-31T01:13:53;2.00;;;1.47;;
16579;SDS011;8402;51.466;6.806;2023-10-31T01:16:23;5.10;;;2.10;;
16579;SDS011;8402;51.466;6.806;2023-10-31T01:18:53;4.73;;;1.50;;
16579;SDS011;8402;51.466;6.806;2023-10-31T01:21:26;3.37;;;1.90;;
16579;SDS011;8402;51.466;6.806;2023-10-31T01:23:55;4.67;;;1.83;;
16579;SDS011;8402;51.466;6.806;2023-10-31T01:26:25;3.33;;;1.77;;
16579;SDS011;8402;51.466;6.806;2023-10-31T01:28:55;2.63;;;2.10;;
16579;SDS011;8402;51.466;6.806;2023-10-31T01:31:26;4.63;;;2.37;;
16579;SDS011;8402;51.466;6.806;2023-10-31T01:33:56;5.50;;;2.97;;
16579;SDS011;8402;51.466;6.806;2023-10-31T01:36:29;5.40;;;3.30;;
16579;SDS011;8402;51.466;6.806;2023-10-31T01:38:58;3.73;;;2.53;;
16579;SDS011;8402;51.466;6.806;2023-10-31T01:41:29;6.53;;;3.00;;
16579;SDS011;8402;51.466;6.806;2023-10-31T01:43:59;7.07;;;3.53;;
16579;SDS011;8402;51.466;6.806;2023-10-31T01:46:29;5.97;;;4.20;;
16579;SDS011;8402;51.466;6.806;2023-10-31T01:48:59;7.67;;;4.10;;
16579;SDS011;8402;51.466;6.806;2023-10-31T01:51:32;9.03;;;4.87;;
16579;SDS011;8402;51.466;6.806;2023-10-31T01:54:02;8.13;;;5.10;;
16579;SDS011;8402;51.466;6.806;2023-10-31T01:56:33;9.97;;;5.27;;
16579;SDS011;8402;51.466;6.806;2023-10-31T01:59:04;9.03;;;5.93;;
16579;SDS011;8402;51.466;6.806;2023-10-31T02:01:35;8.73;;;5.37;;
16579;SDS011;8402;51.466;6.806;2023-10-31T02:04:07;11.10;;;5.40;;
16579;SDS011;8402;51.466;6.806;2023-10-31T02:06:40;9.20;;;5.90;;
16579;SDS011;8402;51.466;6.806;2023-10-31T02:09:12;8.20;;;5.70;;
16579;SDS011;8402;51.466;6.806;2023-10-31T02:11:42;8.63;;;5.57;;
16579;SDS011;8402;51.466;6.806;2023-10-31T02:14:12;9.47;;;5.87;;
16579;SDS011;8402;51.466;6.806;2023-10-31T02:16:42;8.03;;;5.40;;
16579;SDS011;8402;51.466;6.806;2023-10-31T02:19:11;7.30;;;5.20;;
16579;SDS011;8402;51.466;6.806;2023-10-31T02:21:48;8.03;;;4.70;;
16579;SDS011;8402;51.466;6.806;2023-10-31T02:24:20;8.73;;;5.23;;
16579;SDS011;8402;51.466;6.806;2023-10-31T02:26:50;10.37;;;4.73;;
16579;SDS011;8402;51.466;6.806;2023-10-31T02:29:20;9.67;;;4.87;;
16579;SDS011;8402;51.466;6.806;2023-10-31T02:31:50;6.87;;;4.90;;
16579;SDS011;8402;51.466;6.806;2023-10-31T02:34:21;7.73;;;5.17;;
16579;SDS011;8402;51.466;6.806;2023-10-31T02:36:55;9.77;;;5.70;;
16579;SDS011;8402;51.466;6.806;2023-10-31T02:39:25;10.37;;;6.07;;
16579;SDS011;8402;51.466;6.806;2023-10-31T02:41:55;9.80;;;5.97;;
16579;SDS011;8402;51.466;6.806;2023-10-31T02:44:25;13.33;;;6.40;;
16579;SDS011;8402;51.466;6.806;2023-10-31T02:46:55;16.70;;;6.93;;
16579;SDS011;8402;51.466;6.806;2023-10-31T02:49:25;12.67;;;7.13;;
16579;SDS011;8402;51.466;6.806;2023-10-31T02:51:57;7.63;;;4.27;;
16579;SDS011;8402;51.466;6.806;2023-10-31T02:54:27;12.00;;;7.20;;
16579;SDS011;8402;51.466;6.806;2023-10-31T02:56:57;14.80;;;6.97;;
16579;SDS011;8402;51.466;6.806;2023-10-31T02:59:27;13.40;;;7.47;;
16579;SDS011;8402;51.466;6.806;2023-10-31T03:01:57;11.97;;;6.83;;
16579;SDS011;8402;51.466;6.806;2023-10-31T03:04:27;14.83;;;7.17;;
16579;SDS011;8402;51.466;6.806;2023-10-31T03:07:00;11.40;;;7.00;;
16579;SDS011;8402;51.466;6.806;2023-10-31T03:09:30;11.67;;;6.43;;
16579;SDS011;8402;51.466;6.806;2023-10-31T03:12:00;14.93;;;6.50;;
16579;SDS011;8402;51.466;6.806;2023-10-31T03:14:30;16.53;;;7.77;;
16579;SDS011;8402;51.466;6.806;2023-10-31T03:17:00;13.70;;;7.13;;
16579;SDS011;8402;51.466;6.806;2023-10-31T03:19:30;16.57;;;7.27;;
16579;SDS011;8402;51.466;6.806;2023-10-31T03:22:02;9.43;;;6.23;;
16579;SDS011;8402;51.466;6.806;2023-10-31T03:24:32;13.83;;;7.40;;
16579;SDS011;8402;51.466;6.806;2023-10-31T03:27:02;13.67;;;6.83;;
16579;SDS011;8402;51.466;6.806;2023-10-31T03:29:32;15.87;;;6.77;;
16579;SDS011;8402;51.466;6.806;2023-10-31T03:32:02;11.30;;;6.20;;
16579;SDS011;8402;51.466;6.806;2023-10-31T03:34:33;11.47;;;5.50;;
16579;SDS011;8402;51.466;6.806;2023-10-31T03:37:06;11.33;;;6.13;;
16579;SDS011;8402;51.466;6.806;2023-10-31T03:39:36;10.57;;;5.40;;
16579;SDS011;8402;51.466;6.806;2023-10-31T03:42:06;10.37;;;5.70;;
16579;SDS011;8402;51.466;6.806;2023-10-31T03:44:36;9.23;;;4.87;;
16579;SDS011;8402;51.466;6.806;2023-10-31T03:47:06;8.53;;;5.00;;
16579;SDS011;8402;51.466;6.806;2023-10-31T03:49:37;17.83;;;6.47;;
16579;SDS011;8402;51.466;6.806;2023-10-31T03:52:09;11.53;;;5.87;;
16579;SDS011;8402;51.466;6.806;2023-10-31T03:54:39;9.83;;;5.80;;
16579;SDS011;8402;51.466;6.806;2023-10-31T03:57:09;9.87;;;6.17;;
16579;SDS011;8402;51.466;6.806;2023-10-31T03:59:39;10.37;;;6.00;;
16579;SDS011;8402;51.466;6.806;2023-10-31T04:02:09;9.37;;;4.57;;
16579;SDS011;8402;51.466;6.806;2023-10-31T04:04:39;9.37;;;5.70;;
16579;SDS011;8402;51.466;6.806;2023-10-31T04:07:11;9.33;;;5.57;;
16579;SDS011;8402;51.466;6.806;2023-10-31T04:09:41;10.57;;;5.97;;
16579;SDS011;8402;51.466;6.806;2023-10-31T04:12:11;12.63;;;6.07;;
16579;SDS011;8402;51.466;6.806;2023-10-31T04:14:41;13.23;;;6.70;;
16579;SDS011;8402;51.466;6.806;2023-10-31T04:17:11;11.03;;;5.93;;
16579;SDS011;8402;51.466;6.806;2023-10-31T04:19:41;10.63;;;5.50;;
16579;SDS011;8402;51.466;6.806;2023-10-31T04:22:14;10.30;;;6.03;;
16579;SDS011;8402;51.466;6.806;2023-10-31T04:24:44;10.53;;;6.07;;
16579;SDS011;8402;51.466;6.806;2023-10-31T04:27:13;9.30;;;5.70;;
16579;SDS011;8402;51.466;6.806;2023-10-31T04:29:43;11.63;;;5.80;;
16579;SDS011;8402;51.466;6.806;2023-10-31T04:32:15;9.13;;;5.77;;
16579;SDS011;8402;51.466;6.806;2023-10-31T04:34:45;8.33;;;4.67;;
16579;SDS011;8402;51.466;6.806;2023-10-31T04:37:18;14.43;;;6.30;;
16579;SDS011;8402;51.466;6.806;2023-10-31T04:39:48;10.20;;;6.37;;
16579;SDS011;8402;51.466;6.806;2023-10-31T04:42:19;13.47;;;6.30;;
16579;SDS011;8402;51.466;6.806;2023-10-31T04:44:49;12.37;;;6.20;;
16579;SDS011;8402;51.466;6.806;2023-10-31T04:47:19;12.40;;;6.10;;
16579;SDS011;8402;51.466;6.806;2023-10-31T04:49:49;11.07;;;5.97;;
16579;SDS011;8402;51.466;6.806;2023-10-31T04:52:23;12.20;;;6.00;;
16579;SDS011;8402;51.466;6.806;2023-10-31T04:54:53;10.60;;;5.27;;
16579;SDS011;8402;51.466;6.806;2023-10-31T04:57:23;11.03;;;6.40;;
16579;SDS011;8402;51.466;6.806;2023-10-31T04:59:53;9.37;;;5.23;;
16579;SDS011;8402;51.466;6.806;2023-10-31T05:02:25;11.30;;;6.07;;
16579;SDS011;8402;51.466;6.806;2023-10-31T05:04:55;11.37;;;6.17;;
16579;SDS011;8402;51.466;6.806;2023-10-31T05:07:30;11.80;;;6.37;;
16579;SDS011;8402;51.466;6.806;2023-10-31T05:10:00;12.30;;;5.63;;
16579;SDS011;8402;51.466;6.806;2023-10-31T05:12:30;9.93;;;5.43;;
16579;SDS011;8402;51.466;6.806;2023-10-31T05:14:59;10.23;;;5.00;;
16579;SDS011;8402;51.466;6.806;2023-10-31T05:17:29;11.73;;;5.83;;
16579;SDS011;8402;51.466;6.806;2023-10-31T05:19:59;10.70;;;5.90;;
16579;SDS011;8402;51.466;6.806;2023-10-31T05:22:32;8.93;;;4.57;;
16579;SDS011;8402;51.466;6.806;2023-10-31T05:25:02;10.97;;;6.37;;
16579;SDS011;8402;51.466;6.806;2023-10-31T05:27:33;10.97;;;6.10;;
16579;SDS011;8402;51.466;6.806;2023-10-31T05:30:03;12.43;;;6.50;;
16579;SDS011;8402;51.466;6.806;2023-10-31T05:32:33;14.60;;;7.87;;
16579;SDS011;8402;51.466;6.806;2023-10-31T05:35:04;14.07;;;7.67;;
16579;SDS011;8402;51.466;6.806;2023-10-31T05:37:38;18.87;;;9.17;;
16579;SDS011;8402;51.466;6.806;2023-10-31T05:40:08;15.70;;;8.40;;
16579;SDS011;8402;51.466;6.806;2023-10-31T05:42:39;15.30;;;8.77;;
16579;SDS011;8402;51.466;6.806;2023-10-31T05:45:09;13.97;;;8.50;;
16579;SDS011;8402;51.466;6.806;2023-10-31T05:47:39;14.37;;;8.20;;
16579;SDS011;8402;51.466;6.806;2023-10-31T05:50:09;15.37;;;8.10;;
16579;SDS011;8402;51.466;6.806;2023-10-31T05:52:42;18.57;;;9.00;;
16579;SDS011;8402;51.466;6.806;2023-10-31T05:55:12;15.33;;;8.47;;
16579;SDS011;8402;51.466;6.806;2023-10-31T05:57:42;15.70;;;8.70;;
16579;SDS011;8402;51.466;6.806;2023-10-31T06:00:13;17.73;;;9.30;;
16579;SDS011;8402;51.466;6.806;2023-10-31T06:02:43;16.53;;;8.60;;
16579;SDS011;8402;51.466;6.806;2023-10-31T06:05:13;15.30;;;8.63;;
16579;SDS011;8402;51.466;6.806;2023-10-31T06:07:46;14.90;;;8.40;;
16579;SDS011;8402;51.466;6.806;2023-10-31T06:10:15;14.07;;;8.40;;
16579;SDS011;8402;51.466;6.806;2023-10-31T06:12:48;18.03;;;8.00;;
16579;SDS011;8402;51.466;6.806;2023-10-31T06:15:18;12.97;;;7.57;;
16579;SDS011;8402;51.466;6.806;2023-10-31T06:17:48;16.30;;;8.23;;
16579;SDS011;8402;51.466;6.806;2023-10-31T06:20:18;12.43;;;7.20;;
16579;SDS011;8402;51.466;6.806;2023-10-31T06:22:53;13.13;;;7.73;;
16579;SDS011;8402;51.466;6.806;2023-10-31T06:25:24;13.63;;;8.40;;
16579;SDS011;8402;51.466;6.806;2023-10-31T06:27:54;14.70;;;7.90;;
16579;SDS011;8402;51.466;6.806;2023-10-31T06:30:23;12.77;;;7.73;;
16579;SDS011;8402;51.466;6.806;2023-10-31T06:32:54;13.10;;;7.70;;
16579;SDS011;8402;51.466;6.806;2023-10-31T06:35:25;10.30;;;6.70;;
16579;SDS011;8402;51.466;6.806;2023-10-31T06:37:57;11.67;;;6.83;;
16579;SDS011;8402;51.466;6.806;2023-10-31T06:40:27;13.63;;;7.00;;
16579;SDS011;8402;51.466;6.806;2023-10-31T06:43:00;12.13;;;7.23;;
16579;SDS011;8402;51.466;6.806;2023-10-31T06:45:30;11.97;;;6.57;;
16579;SDS011;8402;51.466;6.806;2023-10-31T06:48:00;14.30;;;7.57;;
16579;SDS011;8402;51.466;6.806;2023-10-31T06:50:32;14.83;;;7.07;;
16579;SDS011;8402;51.466;6.806;2023-10-31T06:53:04;13.63;;;7.80;;
16579;SDS011;8402;51.466;6.806;2023-10-31T06:55:34;11.57;;;7.13;;
16579;SDS011;8402;51.466;6.806;2023-10-31T06:58:04;14.07;;;7.57;;
16579;SDS011;8402;51.466;6.806;2023-10-31T07:00:34;14.37;;;7.63;;
16579;SDS011;8402;51.466;6.806;2023-10-31T07:03:04;10.87;;;7.27;;
16579;SDS011;8402;51.466;6.806;2023-10-31T07:05:36;12.80;;;6.67;;
16579;SDS011;8402;51.466;6.806;2023-10-31T07:08:09;9.87;;;6.47;;
16579;SDS011;8402;51.466;6.806;2023-10-31T07:10:39;10.30;;;6.70;;
16579;SDS011;8402;51.466;6.806;2023-10-31T07:13:11;12.53;;;7.10;;
16579;SDS011;8402;51.466;6.806;2023-10-31T07:15:41;15.30;;;7.13;;
16579;SDS011;8402;51.466;6.806;2023-10-31T07:18:13;10.03;;;6.60;;
16579;SDS011;8402;51.466;6.806;2023-10-31T07:20:43;9.80;;;6.20;;
16579;SDS011;8402;51.466;6.806;2023-10-31T07:23:15;10.53;;;6.50;;
16579;SDS011;8402;51.466;6.806;2023-10-31T07:25:45;14.20;;;7.30;;
16579;SDS011;8402;51.466;6.806;2023-10-31T07:28:15;12.20;;;7.60;;
16579;SDS011;8402;51.466;6.806;2023-10-31T07:30:45;18.33;;;8.77;;
16579;SDS011;8402;51.466;6.806;2023-10-31T07:33:17;17.73;;;8.70;;
16579;SDS011;8402;51.466;6.806;2023-10-31T07:35:47;12.93;;;8.37;;
16579;SDS011;8402;51.466;6.806;2023-10-31T07:38:19;11.80;;;8.07;;
16579;SDS011;8402;51.466;6.806;2023-10-31T07:40:49;18.60;;;8.90;;
16579;SDS011;8402;51.466;6.806;2023-10-31T07:43:19;14.77;;;8.83;;
16579;SDS011;8402;51.466;6.806;2023-10-31T07:45:49;15.30;;;9.13;;
16579;SDS011;8402;51.466;6.806;2023-10-31T07:48:21;17.03;;;9.77;;
16579;SDS011;8402;51.466;6.806;2023-10-31T07:50:51;16.73;;;9.83;;
16579;SDS011;8402;51.466;6.806;2023-10-31T07:53:24;14.93;;;8.93;;
16579;SDS011;8402;51.466;6.806;2023-10-31T07:55:53;22.30;;;8.87;;
16579;SDS011;8402;51.466;6.806;2023-10-31T07:58:23;12.93;;;8.47;;
16579;SDS011;8402;51.466;6.806;2023-10-31T08:00:53;13.97;;;9.00;;
16579;SDS011;8402;51.466;6.806;2023-10-31T08:03:23;19.53;;;9.03;;
16579;SDS011;8402;51.466;6.806;2023-10-31T08:05:53;19.87;;;8.97;;
16579;SDS011;8402;51.466;6.806;2023-10-31T08:08:26;17.70;;;9.60;;
16579;SDS011;8402;51.466;6.806;2023-10-31T08:10:56;19.47;;;9.87;;
16579;SDS011;8402;51.466;6.806;2023-10-31T08:13:29;17.50;;;8.57;;
16579;SDS011;8402;51.466;6.806;2023-10-31T08:15:59;15.20;;;9.20;;
16579;SDS011;8402;51.466;6.806;2023-10-31T08:18:29;18.23;;;8.93;;
16579;SDS011;8402;51.466;6.806;2023-10-31T08:20:59;17.87;;;10.00;;
16579;SDS011;8402;51.466;6.806;2023-10-31T08:23:31;19.90;;;9.13;;
16579;SDS011;8402;51.466;6.806;2023-10-31T08:26:02;19.67;;;9.63;;
16579;SDS011;8402;51.466;6.806;2023-10-31T08:28:33;18.77;;;9.43;;
16579;SDS011;8402;51.466;6.806;2023-10-31T08:31:03;12.97;;;7.03;;
16579;SDS011;8402;51.466;6.806;2023-10-31T08:33:33;16.03;;;9.13;;
16579;SDS011;8402;51.466;6.806;2023-10-31T08:36:03;17.37;;;9.07;;
16579;SDS011;8402;51.466;6.806;2023-10-31T08:38:36;13.23;;;8.00;;
16579;SDS011;8402;51.466;6.806;2023-10-31T08:41:06;15.47;;;8.40;;
16579;SDS011;8402;51.466;6.806;2023-10-31T08:43:36;12.97;;;7.80;;
16579;SDS011;8402;51.466;6.806;2023-10-31T08:46:06;11.17;;;7.07;;
16579;SDS011;8402;51.466;6.806;2023-10-31T08:48:36;12.23;;;7.73;;
16579;SDS011;8402;51.466;6.806;2023-10-31T08:51:06;16.13;;;7.50;;
16579;SDS011;8402;51.466;6.806;2023-10-31T08:53:39;12.27;;;7.40;;
16579;SDS011;8402;51.466;6.806;2023-10-31T08:56:11;16.27;;;7.67;;
16579;SDS011;8402;51.466;6.806;2023-10-31T08:58:41;16.57;;;7.00;;
16579;SDS011;8402;51.466;6.806;2023-10-31T09:01:11;13.60;;;7.33;;
16579;SDS011;8402;51.466;6.806;2023-10-31T09:03:41;11.43;;;6.27;;
16579;SDS011;8402;51.466;6.806;2023-10-31T09:06:11;10.00;;;6.03;;
16579;SDS011;8402;51.466;6.806;2023-10-31T09:08:44;12.77;;;6.73;;
16579;SDS011;8402;51.466;6.806;2023-10-31T09:11:13;14.03;;;6.23;;
16579;SDS011;8402;51.466;6.806;2023-10-31T09:13:43;13.77;;;6.30;;
16579;SDS011;8402;51.466;6.806;2023-10-31T09:16:13;13.30;;;5.70;;
16579;SDS011;8402;51.466;6.806;2023-10-31T09:18:43;13.50;;;5.20;;
16579;SDS011;8402;51.466;6.806;2023-10-31T09:21:13;13.77;;;5.83;;
16579;SDS011;8402;51.466;6.806;2023-10-31T09:23:46;11.50;;;5.30;;
16579;SDS011;8402;51.466;6.806;2023-10-31T09:26:16;10.37;;;4.90;;
16579;SDS011;8402;51.466;6.806;2023-10-31T09:28:46;8.40;;;5.20;;
16579;SDS011;8402;51.466;6.806;2023-10-31T09:31:17;8.17;;;5.20;;
16579;SDS011;8402;51.466;6.806;2023-10-31T09:33:47;10.97;;;5.50;;
16579;SDS011;8402;51.466;6.806;2023-10-31T09:36:17;10.33;;;5.60;;
16579;SDS011;8402;51.466;6.806;2023-10-31T09:38:51;9.73;;;5.00;;
16579;SDS011;8402;51.466;6.806;2023-10-31T09:41:21;12.13;;;5.20;;
16579;SDS011;8402;51.466;6.806;2023-10-31T09:43:51;13.00;;;6.00;;
16579;SDS011;8402;51.466;6.806;2023-10-31T09:46:22;11.83;;;5.90;;
16579;SDS011;8402;51.466;6.806;2023-10-31T09:48:52;10.97;;;5.60;;
16579;SDS011;8402;51.466;6.806;2023-10-31T09:51:22;12.70;;;5.20;;
16579;SDS011;8402;51.466;6.806;2023-10-31T09:53:55;17.57;;;6.10;;
16579;SDS011;8402;51.466;6.806;2023-10-31T09:56:28;13.03;;;5.27;;
16579;SDS011;8402;51.466;6.806;2023-10-31T09:59:01;11.73;;;5.63;;
16579;SDS011;8402;51.466;6.806;2023-10-31T10:01:32;13.97;;;6.53;;
16579;SDS011;8402;51.466;6.806;2023-10-31T10:04:04;26.30;;;6.83;;
16579;SDS011;8402;51.466;6.806;2023-10-31T10:06:35;11.30;;;5.97;;
16579;SDS011;8402;51.466;6.806;2023-10-31T10:09:12;14.80;;;5.83;;
16579;SDS011;8402;51.466;6.806;2023-10-31T10:11:42;10.47;;;5.90;;
16579;SDS011;8402;51.466;6.806;2023-10-31T10:14:12;8.77;;;5.63;;
16579;SDS011;8402;51.466;6.806;2023-10-31T10:16:42;13.43;;;5.67;;
16579;SDS011;8402;51.466;6.806;2023-10-31T10:19:15;14.80;;;6.27;;
16579;SDS011;8402;51.466;6.806;2023-10-31T10:21:49;11.43;;;5.67;;
16579;SDS011;8402;51.466;6.806;2023-10-31T10:24:22;12.13;;;5.50;;
16579;SDS011;8402;51.466;6.806;2023-10-31T10:26:53;10.43;;;5.90;;
16579;SDS011;8402;51.466;6.806;2023-10-31T10:29:23;13.13;;;6.30;;
16579;SDS011;8402;51.466;6.806;2023-10-31T10:31:53;10.83;;;5.80;;
16579;SDS011;8402;51.466;6.806;2023-10-31T10:34:23;8.90;;;5.33;;
16579;SDS011;8402;51.466;6.806;2023-10-31T10:36:53;11.73;;;5.93;;
16579;SDS011;8402;51.466;6.806;2023-10-31T10:39:27;8.33;;;5.60;;
16579;SDS011;8402;51.466;6.806;2023-10-31T10:42:04;9.40;;;5.37;;
16579;SDS011;8402;51.466;6.806;2023-10-31T10:44:38;10.60;;;5.87;;
16579;SDS011;8402;51.466;6.806;2023-10-31T10:47:15;14.87;;;5.93;;
16579;SDS011;8402;51.466;6.806;2023-10-31T10:49:47;10.87;;;5.43;;
16579;SDS011;8402;51.466;6.806;2023-10-31T10:52:22;8.03;;;5.13;;
16579;SDS011;8402;51.466;6.806;2023-10-31T10:55:03;11.47;;;5.23;;
16579;SDS011;8402;51.466;6.806;2023-10-31T10:57:36;10.30;;;5.50;;
16579;SDS011;8402;51.466;6.806;2023-10-31T11:00:09;9.27;;;4.73;;
16579;SDS011;8402;51.466;6.806;2023-10-31T11:02:43;7.13;;;4.50;;
16579;SDS011;8402;51.466;6.806;2023-10-31T11:05:15;11.33;;;4.90;;
16579;SDS011;8402;51.466;6.806;2023-10-31T11:07:46;14.47;;;4.80;;
16579;SDS011;8402;51.466;6.806;2023-10-31T11:10:20;13.70;;;4.90;;
16579;SDS011;8402;51.466;6.806;2023-10-31T11:12:51;10.00;;;4.13;;
16579;SDS011;8402;51.466;6.806;2023-10-31T11:15:21;8.13;;;3.87;;
16579;SDS011;8402;51.466;6.806;2023-10-31T11:17:53;9.07;;;4.43;;
16579;SDS011;8402;51.466;6.806;2023-10-31T11:20:25;9.13;;;4.30;;
16579;SDS011;8402;51.466;6.806;2023-10-31T11:22:56;7.77;;;3.77;;
16579;SDS011;8402;51.466;6.806;2023-10-31T11:25:34;7.47;;;4.13;;
16579;SDS011;8402;51.466;6.806;2023-10-31T11:28:12;7.03;;;4.10;;
16579;SDS011;8402;51.466;6.806;2023-10-31T11:30:45;8.80;;;4.07;;
16579;SDS011;8402;51.466;6.806;2023-10-31T11:33:18;8.53;;;4.70;;
16579;SDS011;8402;51.466;6.806;2023-10-31T11:35:50;9.70;;;4.17;;
16579;SDS011;8402;51.466;6.806;2023-10-31T11:38:27;10.77;;;4.47;;
16579;SDS011;8402;51.466;6.806;2023-10-31T11:41:04;10.27;;;4.67;;
16579;SDS011;8402;51.466;6.806;2023-10-31T11:46:26;10.80;;;4.13;;
16579;SDS011;8402;51.466;6.806;2023-10-31T11:48:58;9.07;;;3.93;;
16579;SDS011;8402;51.466;6.806;2023-10-31T11:51:28;14.40;;;4.73;;
16579;SDS011;8402;51.466;6.806;2023-10-31T11:53:59;11.37;;;4.70;;
16579;SDS011;8402;51.466;6.806;2023-10-31T11:56:36;4.63;;;3.10;;
16579;SDS011;8402;51.466;6.806;2023-10-31T11:59:06;13.87;;;4.07;;
16579;SDS011;8402;51.466;6.806;2023-10-31T12:01:43;18.13;;;3.50;;
16579;SDS011;8402;51.466;6.806;2023-10-31T12:04:23;8.60;;;3.13;;
16579;SDS011;8402;51.466;6.806;2023-10-31T12:06:59;10.40;;;3.73;;
16579;SDS011;8402;51.466;6.806;2023-10-31T12:09:30;7.27;;;3.40;;
16579;SDS011;8402;51.466;6.806;2023-10-31T12:12:04;6.33;;;2.80;;
16579;SDS011;8402;51.466;6.806;2023-10-31T12:14:35;6.33;;;2.90;;
16579;SDS011;8402;51.466;6.806;2023-10-31T12:17:06;6.23;;;2.70;;
16579;SDS011;8402;51.466;6.806;2023-10-31T12:19:37;4.83;;;2.50;;
16579;SDS011;8402;51.466;6.806;2023-10-31T12:22:12;8.50;;;2.57;;
16579;SDS011;8402;51.466;6.806;2023-10-31T12:24:43;7.30;;;2.47;;
16579;SDS011;8402;51.466;6.806;2023-10-31T12:27:15;3.87;;;2.27;;
16579;SDS011;8402;51.466;6.806;2023-10-31T12:29:45;6.60;;;2.87;;
16579;SDS011;8402;51.466;6.806;2023-10-31T12:32:15;9.53;;;2.90;;
16579;SDS011;8402;51.466;6.806;2023-10-31T12:34:46;6.57;;;2.77;;
16579;SDS011;8402;51.466;6.806;2023-10-31T12:37:16;6.63;;;2.40;;
16579;SDS011;8402;51.466;6.806;2023-10-31T12:39:46;6.07;;;2.60;;
16579;SDS011;8402;51.466;6.806;2023-10-31T12:42:20;10.00;;;2.80;;
16579;SDS011;8402;51.466;6.806;2023-10-31T12:44:55;5.30;;;2.30;;
16579;SDS011;8402;51.466;6.806;2023-10-31T12:47:25;7.23;;;2.77;;
16579;SDS011;8402;51.466;6.806;2023-10-31T12:50:06;6.87;;;2.43;;
16579;SDS011;8402;51.466;6.806;2023-10-31T12:52:46;10.13;;;2.73;;
16579;SDS011;8402;51.466;6.806;2023-10-31T12:55:18;7.37;;;2.40;;
16579;SDS011;8402;51.466;6.806;2023-10-31T12:57:52;5.60;;;2.87;;
16579;SDS011;8402;51.466;6.806;2023-10-31T13:00:23;4.67;;;2.20;;
16579;SDS011;8402;51.466;6.806;2023-10-31T13:03:00;4.57;;;2.00;;
16579;SDS011;8402;51.466;6.806;2023-10-31T13:05:31;8.50;;;2.57;;
16579;SDS011;8402;51.466;6.806;2023-10-31T13:08:03;3.23;;;2.00;;
16579;SDS011;8402;51.466;6.806;2023-10-31T13:10:33;6.20;;;2.63;;
16579;SDS011;8402;51.466;6.806;2023-10-31T13:13:06;5.53;;;2.10;;
16579;SDS011;8402;51.466;6.806;2023-10-31T13:15:35;6.07;;;2.43;;
16579;SDS011;8402;51.466;6.806;2023-10-31T13:18:05;8.17;;;2.40;;
16579;SDS011;8402;51.466;6.806;2023-10-31T13:20:38;3.73;;;2.00;;
16579;SDS011;8402;51.466;6.806;2023-10-31T13:23:08;5.90;;;2.10;;
16579;SDS011;8402;51.466;6.806;2023-10-31T13:25:38;5.97;;;2.43;;
16579;SDS011;8402;51.466;6.806;2023-10-31T13:28:11;5.00;;;2.40;;
16579;SDS011;8402;51.466;6.806;2023-10-31T13:30:42;5.83;;;2.30;;
16579;SDS011;8402;51.466;6.806;2023-10-31T13:33:14;3.67;;;2.10;;
16579;SDS011;8402;51.466;6.806;2023-10-31T13:35:44;6.10;;;2.20;;
16579;SDS011;8402;51.466;6.806;2023-10-31T13:38:14;2.97;;;1.70;;
16579;SDS011;8402;51.466;6.806;2023-10-31T13:40:45;3.07;;;1.90;;
16579;SDS011;8402;51.466;6.806;2023-10-31T13:43:18;3.60;;;2.07;;
16579;SDS011;8402;51.466;6.806;2023-10-31T13:45:48;7.07;;;2.03;;
16579;SDS011;8402;51.466;6.806;2023-10-31T13:48:18;7.17;;;2.00;;
16579;SDS011;8402;51.466;6.806;2023-10-31T13:50:48;5.00;;;1.80;;
16579;SDS011;8402;51.466;6.806;2023-10-31T13:53:17;4.77;;;2.00;;
16579;SDS011;8402;51.466;6.806;2023-10-31T13:55:48;4.13;;;1.50;;
16579;SDS011;8402;51.466;6.806;2023-10-31T13:58:21;4.00;;;1.97;;
16579;SDS011;8402;51.466;6.806;2023-10-31T14:00:51;4.00;;;1.80;;
16579;SDS011;8402;51.466;6.806;2023-10-31T14:03:21;5.93;;;1.97;;
16579;SDS011;8402;51.466;6.806;2023-10-31T14:05:51;3.23;;;1.70;;
16579;SDS011;8402;51.466;6.806;2023-10-31T14:08:22;8.80;;;1.73;;
16579;SDS011;8402;51.466;6.806;2023-10-31T14:10:52;4.53;;;1.70;;
16579;SDS011;8402;51.466;6.806;2023-10-31T14:13:26;3.83;;;1.60;;
16579;SDS011;8402;51.466;6.806;2023-10-31T14:15:56;3.37;;;1.77;;
16579;SDS011;8402;51.466;6.806;2023-10-31T14:18:26;5.93;;;2.03;;
16579;SDS011;8402;51.466;6.806;2023-10-31T14:20:56;3.77;;;1.77;;
16579;SDS011;8402;51.466;6.806;2023-10-31T14:23:26;2.93;;;1.70;;
16579;SDS011;8402;51.466;6.806;2023-10-31T14:25:56;2.83;;;1.63;;
16579;SDS011;8402;51.466;6.806;2023-10-31T14:28:28;4.50;;;1.50;;
16579;SDS011;8402;51.466;6.806;2023-10-31T14:30:58;3.70;;;2.03;;
16579;SDS011;8402;51.466;6.806;2023-10-31T14:33:28;2.57;;;1.90;;
16579;SDS011;8402;51.466;6.806;2023-10-31T14:35:58;6.40;;;2.27;;
16579;SDS011;8402;51.466;6.806;2023-10-31T14:38:29;5.13;;;1.73;;
16579;SDS011;8402;51.466;6.806;2023-10-31T14:40:59;4.97;;;2.40;;
16579;SDS011;8402;51.466;6.806;2023-10-31T14:43:33;7.00;;;2.10;;
16579;SDS011;8402;51.466;6.806;2023-10-31T14:46:04;6.60;;;2.60;;
16579;SDS011;8402;51.466;6.806;2023-10-31T14:48:34;11.67;;;2.63;;
16579;SDS011;8402;51.466;6.806;2023-10-31T14:51:04;3.53;;;2.40;;
16579;SDS011;8402;51.466;6.806;2023-10-31T14:53:34;3.87;;;2.30;;
16579;SDS011;8402;51.466;6.806;2023-10-31T14:56:05;7.07;;;2.50;;
16579;SDS011;8402;51.466;6.806;2023-10-31T14:58:38;7.40;;;2.30;;
16579;SDS011;8402;51.466;6.806;2023-10-31T15:01:09;5.97;;;2.43;;
16579;SDS011;8402;51.466;6.806;2023-10-31T15:03:40;5.37;;;2.70;;
16579;SDS011;8402;51.466;6.806;2023-10-31T15:06:10;9.93;;;2.90;;
16579;SDS011;8402;51.466;6.806;2023-10-31T15:08:41;5.83;;;2.87;;
16579;SDS011;8402;51.466;6.806;2023-10-31T15:11:11;6.07;;;3.07;;
16579;SDS011;8402;51.466;6.806;2023-10-31T15:13:45;6.10;;;2.60;;
16579;SDS011;8402;51.466;6.806;2023-10-31T15:16:15;6.00;;;3.40;;
16579;SDS011;8402;51.466;6.806;2023-10-31T15:18:45;3.83;;;2.53;;
16579;SDS011;8402;51.466;6.806;2023-10-31T15:21:15;6.67;;;2.50;;